sensor_id;sensor_type;location;lat;lon;timestamp;P1;durP1;ratioP1;P2;durP2;ratioP2
73557;SDS011;61829;53.286;10.434;2023-04-24T00:01:12;4.47;;;3.08;;
73557;SDS011;61829;53.286;10.434;2023-04-24T00:03:39;4.93;;;3.25;;
73557;SDS011;61829;53.286;10.434;2023-04-24T00:06:17;4.47;;;3.28;;
73557;SDS011;61829;53.286;10.434;2023-04-24T00:08:43;5.10;;;2.95;;
73557;SDS011;61829;53.286;10.434;2023-04-24T00:11:09;4.28;;;3.00;;
73557;SDS011;61829;53.286;10.434;2023-04-24T00:13:35;4.82;;;3.00;;
73557;SDS011;61829;53.286;10.434;2023-04-24T00:16:00;4.13;;;2.85;;
73557;SDS011;61829;53.286;10.434;2023-04-24T00:18:26;4.55;;;2.92;;
73557;SDS011;61829;53.286;10.434;2023-04-24T00:20:57;4.50;;;2.97;;
73557;SDS011;61829;53.286;10.434;2023-04-24T00:23:24;5.97;;;3.20;;
73557;SDS011;61829;53.286;10.434;2023-04-24T00:25:49;4.63;;;3.28;;
73557;SDS011;61829;53.286;10.434;2023-04-24T00:28:15;6.10;;;3.25;;
73557;SDS011;61829;53.286;10.434;2023-04-24T00:30:41;5.63;;;3.35;;
73557;SDS011;61829;53.286;10.434;2023-04-24T00:33:07;5.18;;;3.17;;
73557;SDS011;61829;53.286;10.434;2023-04-24T00:35:33;4.85;;;3.22;;
73557;SDS011;61829;53.286;10.434;2023-04-24T00:37:59;4.18;;;2.78;;
73557;SDS011;61829;53.286;10.434;2023-04-24T00:40:24;4.65;;;3.25;;
73557;SDS011;61829;53.286;10.434;2023-04-24T00:42:50;6.80;;;3.28;;
73557;SDS011;61829;53.286;10.434;2023-04-24T00:45:16;5.53;;;2.88;;
73557;SDS011;61829;53.286;10.434;2023-04-24T00:47:42;5.28;;;3.35;;
73557;SDS011;61829;53.286;10.434;2023-04-24T00:50:08;6.07;;;3.42;;
73557;SDS011;61829;53.286;10.434;2023-04-24T00:52:35;4.10;;;2.80;;
73557;SDS011;61829;53.286;10.434;2023-04-24T00:55:02;5.60;;;3.05;;
73557;SDS011;61829;53.286;10.434;2023-04-24T00:57:28;5.70;;;3.45;;
73557;SDS011;61829;53.286;10.434;2023-04-24T00:59:54;4.43;;;3.30;;
73557;SDS011;61829;53.286;10.434;2023-04-24T01:02:21;4.47;;;3.13;;
73557;SDS011;61829;53.286;10.434;2023-04-24T01:04:49;5.65;;;3.70;;
73557;SDS011;61829;53.286;10.434;2023-04-24T01:07:17;4.78;;;3.00;;
73557;SDS011;61829;53.286;10.434;2023-04-24T01:09:46;6.93;;;3.47;;
73557;SDS011;61829;53.286;10.434;2023-04-24T01:12:14;5.03;;;3.35;;
73557;SDS011;61829;53.286;10.434;2023-04-24T01:14:40;5.05;;;2.95;;
73557;SDS011;61829;53.286;10.434;2023-04-24T01:17:06;4.20;;;2.72;;
73557;SDS011;61829;53.286;10.434;2023-04-24T01:19:32;6.40;;;2.72;;
73557;SDS011;61829;53.286;10.434;2023-04-24T01:21:58;4.10;;;2.30;;
73557;SDS011;61829;53.286;10.434;2023-04-24T01:24:28;4.10;;;2.70;;
73557;SDS011;61829;53.286;10.434;2023-04-24T01:26:54;3.47;;;2.45;;
73557;SDS011;61829;53.286;10.434;2023-04-24T01:29:20;3.80;;;2.60;;
73557;SDS011;61829;53.286;10.434;2023-04-24T01:31:46;3.65;;;2.55;;
73557;SDS011;61829;53.286;10.434;2023-04-24T01:34:12;5.30;;;2.50;;
73557;SDS011;61829;53.286;10.434;2023-04-24T01:36:40;4.88;;;2.60;;
73557;SDS011;61829;53.286;10.434;2023-04-24T01:39:06;4.85;;;2.33;;
73557;SDS011;61829;53.286;10.434;2023-04-24T01:41:33;3.75;;;2.33;;
73557;SDS011;61829;53.286;10.434;2023-04-24T01:43:59;3.70;;;2.08;;
73557;SDS011;61829;53.286;10.434;2023-04-24T01:46:25;3.67;;;2.08;;
73557;SDS011;61829;53.286;10.434;2023-04-24T01:48:51;4.57;;;2.13;;
73557;SDS011;61829;53.286;10.434;2023-04-24T01:51:17;4.38;;;2.20;;
73557;SDS011;61829;53.286;10.434;2023-04-24T01:53:43;3.17;;;2.00;;
73557;SDS011;61829;53.286;10.434;2023-04-24T01:56:09;3.60;;;1.98;;
73557;SDS011;61829;53.286;10.434;2023-04-24T01:58:35;5.38;;;2.00;;
73557;SDS011;61829;53.286;10.434;2023-04-24T02:01:01;4.20;;;2.00;;
73557;SDS011;61829;53.286;10.434;2023-04-24T02:03:27;3.97;;;1.77;;
73557;SDS011;61829;53.286;10.434;2023-04-24T02:05:53;2.75;;;1.70;;
73557;SDS011;61829;53.286;10.434;2023-04-24T02:08:19;4.68;;;1.80;;
73557;SDS011;61829;53.286;10.434;2023-04-24T02:10:44;2.90;;;1.90;;
73557;SDS011;61829;53.286;10.434;2023-04-24T02:13:10;2.67;;;1.85;;
73557;SDS011;61829;53.286;10.434;2023-04-24T02:15:37;3.40;;;1.60;;
73557;SDS011;61829;53.286;10.434;2023-04-24T02:18:02;2.63;;;1.70;;
73557;SDS011;61829;53.286;10.434;2023-04-24T02:20:28;3.90;;;1.67;;
73557;SDS011;61829;53.286;10.434;2023-04-24T02:22:54;2.70;;;1.48;;
73557;SDS011;61829;53.286;10.434;2023-04-24T02:25:20;2.80;;;1.80;;
73557;SDS011;61829;53.286;10.434;2023-04-24T02:27:46;2.35;;;1.50;;
73557;SDS011;61829;53.286;10.434;2023-04-24T02:30:12;2.90;;;1.90;;
73557;SDS011;61829;53.286;10.434;2023-04-24T02:32:38;2.80;;;1.73;;
73557;SDS011;61829;53.286;10.434;2023-04-24T02:35:04;3.40;;;1.98;;
73557;SDS011;61829;53.286;10.434;2023-04-24T02:37:31;3.03;;;1.67;;
73557;SDS011;61829;53.286;10.434;2023-04-24T02:39:57;2.90;;;1.85;;
73557;SDS011;61829;53.286;10.434;2023-04-24T02:42:22;3.10;;;1.60;;
73557;SDS011;61829;53.286;10.434;2023-04-24T02:44:48;2.70;;;1.65;;
73557;SDS011;61829;53.286;10.434;2023-04-24T02:47:15;2.80;;;1.75;;
73557;SDS011;61829;53.286;10.434;2023-04-24T02:49:41;1.55;;;1.23;;
73557;SDS011;61829;53.286;10.434;2023-04-24T02:52:07;1.90;;;1.17;;
73557;SDS011;61829;53.286;10.434;2023-04-24T02:54:33;3.80;;;1.60;;
73557;SDS011;61829;53.286;10.434;2023-04-24T02:56:59;2.00;;;1.30;;
73557;SDS011;61829;53.286;10.434;2023-04-24T03:01:53;1.40;;;1.00;;
73557;SDS011;61829;53.286;10.434;2023-04-24T03:04:18;3.33;;;1.40;;
73557;SDS011;61829;53.286;10.434;2023-04-24T03:06:45;2.08;;;1.50;;
73557;SDS011;61829;53.286;10.434;2023-04-24T03:09:11;2.85;;;1.60;;
73557;SDS011;61829;53.286;10.434;2023-04-24T03:11:37;2.20;;;1.40;;
73557;SDS011;61829;53.286;10.434;2023-04-24T03:14:03;2.08;;;1.40;;
73557;SDS011;61829;53.286;10.434;2023-04-24T03:16:28;2.40;;;1.45;;
73557;SDS011;61829;53.286;10.434;2023-04-24T03:18:54;2.85;;;1.73;;
73557;SDS011;61829;53.286;10.434;2023-04-24T03:21:20;2.97;;;1.50;;
73557;SDS011;61829;53.286;10.434;2023-04-24T03:23:46;2.20;;;1.30;;
73557;SDS011;61829;53.286;10.434;2023-04-24T03:26:12;3.22;;;1.35;;
73557;SDS011;61829;53.286;10.434;2023-04-24T03:28:38;2.95;;;1.40;;
73557;SDS011;61829;53.286;10.434;2023-04-24T03:31:03;2.75;;;1.35;;
73557;SDS011;61829;53.286;10.434;2023-04-24T03:33:30;2.33;;;1.30;;
73557;SDS011;61829;53.286;10.434;2023-04-24T03:35:55;2.58;;;1.40;;
73557;SDS011;61829;53.286;10.434;2023-04-24T03:38:22;1.88;;;1.20;;
73557;SDS011;61829;53.286;10.434;2023-04-24T03:40:47;3.40;;;1.65;;
73557;SDS011;61829;53.286;10.434;2023-04-24T03:46:55;3.80;;;1.40;;
73557;SDS011;61829;53.286;10.434;2023-04-24T03:49:20;2.03;;;1.38;;
73557;SDS011;61829;53.286;10.434;2023-04-24T03:51:47;1.48;;;1.15;;
73557;SDS011;61829;53.286;10.434;2023-04-24T03:54:13;1.20;;;1.00;;
73557;SDS011;61829;53.286;10.434;2023-04-24T03:56:39;2.15;;;1.30;;
73557;SDS011;61829;53.286;10.434;2023-04-24T03:59:04;1.20;;;1.00;;
73557;SDS011;61829;53.286;10.434;2023-04-24T04:01:33;2.53;;;1.20;;
73557;SDS011;61829;53.286;10.434;2023-04-24T04:04:02;2.28;;;1.30;;
73557;SDS011;61829;53.286;10.434;2023-04-24T04:06:28;3.65;;;1.20;;
73557;SDS011;61829;53.286;10.434;2023-04-24T04:11:22;1.60;;;0.90;;
73557;SDS011;61829;53.286;10.434;2023-04-24T04:13:48;1.20;;;1.10;;
73557;SDS011;61829;53.286;10.434;2023-04-24T04:16:17;2.22;;;1.00;;
73557;SDS011;61829;53.286;10.434;2023-04-24T04:18:43;1.70;;;1.10;;
73557;SDS011;61829;53.286;10.434;2023-04-24T04:21:09;1.75;;;0.98;;
73557;SDS011;61829;53.286;10.434;2023-04-24T04:23:35;4.68;;;0.90;;
73557;SDS011;61829;53.286;10.434;2023-04-24T04:26:02;2.47;;;1.23;;
73557;SDS011;61829;53.286;10.434;2023-04-24T04:28:28;1.83;;;1.08;;
73557;SDS011;61829;53.286;10.434;2023-04-24T04:30:56;1.67;;;1.13;;
73557;SDS011;61829;53.286;10.434;2023-04-24T04:33:23;1.20;;;1.02;;
73557;SDS011;61829;53.286;10.434;2023-04-24T04:35:49;1.13;;;1.00;;
73557;SDS011;61829;53.286;10.434;2023-04-24T04:38:17;1.00;;;0.90;;
73557;SDS011;61829;53.286;10.434;2023-04-24T04:40:44;1.05;;;0.95;;
73557;SDS011;61829;53.286;10.434;2023-04-24T04:43:10;1.15;;;1.00;;
73557;SDS011;61829;53.286;10.434;2023-04-24T04:45:37;4.07;;;1.10;;
73557;SDS011;61829;53.286;10.434;2023-04-24T04:48:05;2.20;;;1.13;;
73557;SDS011;61829;53.286;10.434;2023-04-24T04:50:33;1.95;;;1.02;;
73557;SDS011;61829;53.286;10.434;2023-04-24T04:52:59;1.40;;;1.00;;
73557;SDS011;61829;53.286;10.434;2023-04-24T04:55:25;1.55;;;0.95;;
73557;SDS011;61829;53.286;10.434;2023-04-24T04:57:51;1.00;;;0.90;;
73557;SDS011;61829;53.286;10.434;2023-04-24T05:00:17;1.35;;;1.00;;
73557;SDS011;61829;53.286;10.434;2023-04-24T05:02:43;1.77;;;1.30;;
73557;SDS011;61829;53.286;10.434;2023-04-24T05:05:09;1.73;;;1.10;;
73557;SDS011;61829;53.286;10.434;2023-04-24T05:07:35;1.42;;;0.90;;
73557;SDS011;61829;53.286;10.434;2023-04-24T05:10:01;1.02;;;0.90;;
73557;SDS011;61829;53.286;10.434;2023-04-24T05:12:27;1.85;;;1.08;;
73557;SDS011;61829;53.286;10.434;2023-04-24T05:14:53;1.10;;;0.90;;
73557;SDS011;61829;53.286;10.434;2023-04-24T05:17:25;2.33;;;0.95;;
73557;SDS011;61829;53.286;10.434;2023-04-24T05:19:54;0.85;;;0.82;;
73557;SDS011;61829;53.286;10.434;2023-04-24T05:22:21;2.33;;;0.98;;
73557;SDS011;61829;53.286;10.434;2023-04-24T05:24:47;0.85;;;0.80;;
73557;SDS011;61829;53.286;10.434;2023-04-24T05:27:13;2.58;;;1.00;;
73557;SDS011;61829;53.286;10.434;2023-04-24T05:29:39;2.25;;;1.00;;
73557;SDS011;61829;53.286;10.434;2023-04-24T05:32:05;1.10;;;0.90;;
73557;SDS011;61829;53.286;10.434;2023-04-24T05:34:31;1.00;;;0.90;;
73557;SDS011;61829;53.286;10.434;2023-04-24T05:36:57;2.85;;;0.82;;
73557;SDS011;61829;53.286;10.434;2023-04-24T05:39:24;1.27;;;0.88;;
73557;SDS011;61829;53.286;10.434;2023-04-24T05:41:50;1.08;;;0.90;;
73557;SDS011;61829;53.286;10.434;2023-04-24T05:44:16;1.10;;;0.90;;
73557;SDS011;61829;53.286;10.434;2023-04-24T05:46:42;1.30;;;0.98;;
73557;SDS011;61829;53.286;10.434;2023-04-24T05:49:08;1.20;;;1.05;;
73557;SDS011;61829;53.286;10.434;2023-04-24T05:51:34;1.27;;;0.80;;
73557;SDS011;61829;53.286;10.434;2023-04-24T05:54:00;1.38;;;0.90;;
73557;SDS011;61829;53.286;10.434;2023-04-24T05:56:26;3.78;;;1.00;;
73557;SDS011;61829;53.286;10.434;2023-04-24T05:58:53;2.65;;;1.10;;
73557;SDS011;61829;53.286;10.434;2023-04-24T06:01:18;2.50;;;1.10;;
73557;SDS011;61829;53.286;10.434;2023-04-24T06:03:45;1.92;;;1.08;;
73557;SDS011;61829;53.286;10.434;2023-04-24T06:06:10;3.28;;;1.10;;
73557;SDS011;61829;53.286;10.434;2023-04-24T06:08:38;1.15;;;1.00;;
73557;SDS011;61829;53.286;10.434;2023-04-24T06:11:03;1.80;;;1.17;;
73557;SDS011;61829;53.286;10.434;2023-04-24T06:13:29;1.33;;;1.00;;
73557;SDS011;61829;53.286;10.434;2023-04-24T06:15:55;2.13;;;1.00;;
73557;SDS011;61829;53.286;10.434;2023-04-24T06:18:21;0.98;;;0.80;;
73557;SDS011;61829;53.286;10.434;2023-04-24T06:20:47;0.80;;;0.80;;
73557;SDS011;61829;53.286;10.434;2023-04-24T06:23:13;1.20;;;1.08;;
73557;SDS011;61829;53.286;10.434;2023-04-24T06:25:38;1.17;;;0.88;;
73557;SDS011;61829;53.286;10.434;2023-04-24T06:28:05;1.70;;;1.00;;
73557;SDS011;61829;53.286;10.434;2023-04-24T06:30:30;2.20;;;0.90;;
73557;SDS011;61829;53.286;10.434;2023-04-24T06:32:56;1.52;;;1.00;;
73557;SDS011;61829;53.286;10.434;2023-04-24T06:35:22;1.45;;;1.02;;
73557;SDS011;61829;53.286;10.434;2023-04-24T06:37:48;4.53;;;1.52;;
73557;SDS011;61829;53.286;10.434;2023-04-24T06:40:14;1.63;;;0.98;;
73557;SDS011;61829;53.286;10.434;2023-04-24T06:42:40;3.83;;;1.08;;
73557;SDS011;61829;53.286;10.434;2023-04-24T06:45:06;1.80;;;0.98;;
73557;SDS011;61829;53.286;10.434;2023-04-24T06:47:32;1.90;;;0.90;;
73557;SDS011;61829;53.286;10.434;2023-04-24T06:49:58;1.85;;;0.98;;
73557;SDS011;61829;53.286;10.434;2023-04-24T06:52:25;1.23;;;0.85;;
73557;SDS011;61829;53.286;10.434;2023-04-24T06:54:51;2.55;;;1.00;;
73557;SDS011;61829;53.286;10.434;2023-04-24T06:57:17;1.80;;;0.80;;
73557;SDS011;61829;53.286;10.434;2023-04-24T06:59:43;1.05;;;0.90;;
73557;SDS011;61829;53.286;10.434;2023-04-24T07:02:09;1.75;;;0.80;;
73557;SDS011;61829;53.286;10.434;2023-04-24T07:04:34;1.63;;;0.82;;
73557;SDS011;61829;53.286;10.434;2023-04-24T07:07:00;0.77;;;0.77;;
73557;SDS011;61829;53.286;10.434;2023-04-24T07:09:28;1.75;;;0.90;;
73557;SDS011;61829;53.286;10.434;2023-04-24T07:11:54;0.85;;;0.80;;
73557;SDS011;61829;53.286;10.434;2023-04-24T07:14:21;1.70;;;1.08;;
73557;SDS011;61829;53.286;10.434;2023-04-24T07:16:48;1.08;;;0.90;;
73557;SDS011;61829;53.286;10.434;2023-04-24T07:19:14;1.42;;;0.90;;
73557;SDS011;61829;53.286;10.434;2023-04-24T07:21:40;2.22;;;1.10;;
73557;SDS011;61829;53.286;10.434;2023-04-24T07:24:06;2.08;;;1.10;;
73557;SDS011;61829;53.286;10.434;2023-04-24T07:26:36;1.15;;;0.80;;
73557;SDS011;61829;53.286;10.434;2023-04-24T07:29:03;1.05;;;0.90;;
73557;SDS011;61829;53.286;10.434;2023-04-24T07:31:29;2.50;;;0.77;;
73557;SDS011;61829;53.286;10.434;2023-04-24T07:33:55;1.50;;;0.90;;
73557;SDS011;61829;53.286;10.434;2023-04-24T07:36:23;1.00;;;0.90;;
73557;SDS011;61829;53.286;10.434;2023-04-24T07:38:51;0.70;;;0.70;;
73557;SDS011;61829;53.286;10.434;2023-04-24T07:41:17;1.05;;;0.90;;
73557;SDS011;61829;53.286;10.434;2023-04-24T07:43:44;1.50;;;1.23;;
73557;SDS011;61829;53.286;10.434;2023-04-24T07:46:10;1.42;;;0.82;;
73557;SDS011;61829;53.286;10.434;2023-04-24T07:48:36;0.70;;;0.70;;
73557;SDS011;61829;53.286;10.434;2023-04-24T07:51:02;1.92;;;0.98;;
73557;SDS011;61829;53.286;10.434;2023-04-24T07:53:28;0.63;;;0.63;;
73557;SDS011;61829;53.286;10.434;2023-04-24T07:55:54;2.25;;;0.88;;
73557;SDS011;61829;53.286;10.434;2023-04-24T07:58:24;1.13;;;0.80;;
73557;SDS011;61829;53.286;10.434;2023-04-24T08:00:50;0.82;;;0.82;;
73557;SDS011;61829;53.286;10.434;2023-04-24T08:03:16;0.85;;;0.77;;
73557;SDS011;61829;53.286;10.434;2023-04-24T08:05:45;1.40;;;1.00;;
73557;SDS011;61829;53.286;10.434;2023-04-24T08:08:11;1.65;;;0.82;;
73557;SDS011;61829;53.286;10.434;2023-04-24T08:10:37;1.73;;;0.90;;
73557;SDS011;61829;53.286;10.434;2023-04-24T08:13:03;2.13;;;0.95;;
73557;SDS011;61829;53.286;10.434;2023-04-24T08:15:30;0.90;;;0.80;;
73557;SDS011;61829;53.286;10.434;2023-04-24T08:17:56;1.10;;;0.80;;
73557;SDS011;61829;53.286;10.434;2023-04-24T08:20:23;1.38;;;1.08;;
73557;SDS011;61829;53.286;10.434;2023-04-24T08:22:49;1.75;;;1.10;;
73557;SDS011;61829;53.286;10.434;2023-04-24T08:25:15;3.20;;;1.60;;
73557;SDS011;61829;53.286;10.434;2023-04-24T08:27:44;1.55;;;1.10;;
73557;SDS011;61829;53.286;10.434;2023-04-24T08:30:10;1.98;;;1.23;;
73557;SDS011;61829;53.286;10.434;2023-04-24T08:32:36;3.63;;;1.40;;
73557;SDS011;61829;53.286;10.434;2023-04-24T08:35:03;2.33;;;1.30;;
73557;SDS011;61829;53.286;10.434;2023-04-24T08:37:30;2.53;;;1.88;;
73557;SDS011;61829;53.286;10.434;2023-04-24T08:39:56;1.80;;;1.23;;
73557;SDS011;61829;53.286;10.434;2023-04-24T08:42:22;1.88;;;1.20;;
73557;SDS011;61829;53.286;10.434;2023-04-24T08:44:48;2.58;;;1.35;;
73557;SDS011;61829;53.286;10.434;2023-04-24T08:47:15;1.95;;;1.20;;
73557;SDS011;61829;53.286;10.434;2023-04-24T08:49:41;4.15;;;1.50;;
73557;SDS011;61829;53.286;10.434;2023-04-24T08:52:08;2.33;;;1.50;;
73557;SDS011;61829;53.286;10.434;2023-04-24T08:54:35;3.00;;;1.45;;
73557;SDS011;61829;53.286;10.434;2023-04-24T08:57:01;1.83;;;1.23;;
73557;SDS011;61829;53.286;10.434;2023-04-24T08:59:29;2.85;;;1.30;;
73557;SDS011;61829;53.286;10.434;2023-04-24T09:01:56;2.75;;;1.35;;
73557;SDS011;61829;53.286;10.434;2023-04-24T09:06:53;3.47;;;1.40;;
73557;SDS011;61829;53.286;10.434;2023-04-24T09:09:21;2.88;;;1.38;;
73557;SDS011;61829;53.286;10.434;2023-04-24T09:11:51;4.20;;;1.70;;
73557;SDS011;61829;53.286;10.434;2023-04-24T09:14:21;2.13;;;1.20;;
73557;SDS011;61829;53.286;10.434;2023-04-24T09:16:49;3.00;;;1.50;;
73557;SDS011;61829;53.286;10.434;2023-04-24T09:19:16;3.50;;;2.13;;
73557;SDS011;61829;53.286;10.434;2023-04-24T09:21:42;3.63;;;2.47;;
73557;SDS011;61829;53.286;10.434;2023-04-24T09:24:16;9.65;;;5.40;;
73557;SDS011;61829;53.286;10.434;2023-04-24T09:26:43;4.07;;;2.70;;
73557;SDS011;61829;53.286;10.434;2023-04-24T09:29:16;3.85;;;2.65;;
73557;SDS011;61829;53.286;10.434;2023-04-24T09:31:43;4.68;;;2.70;;
73557;SDS011;61829;53.286;10.434;2023-04-24T09:34:10;3.28;;;2.17;;
73557;SDS011;61829;53.286;10.434;2023-04-24T09:36:38;6.10;;;3.28;;
73557;SDS011;61829;53.286;10.434;2023-04-24T09:39:08;4.43;;;2.70;;
73557;SDS011;61829;53.286;10.434;2023-04-24T09:41:43;5.03;;;2.90;;
73557;SDS011;61829;53.286;10.434;2023-04-24T09:44:13;3.75;;;2.88;;
73557;SDS011;61829;53.286;10.434;2023-04-24T09:46:44;5.47;;;3.40;;
73557;SDS011;61829;53.286;10.434;2023-04-24T09:49:15;5.53;;;3.83;;
73557;SDS011;61829;53.286;10.434;2023-04-24T09:51:42;4.72;;;2.70;;
73557;SDS011;61829;53.286;10.434;2023-04-24T09:54:13;5.30;;;2.72;;
73557;SDS011;61829;53.286;10.434;2023-04-24T09:56:44;5.55;;;3.30;;
73557;SDS011;61829;53.286;10.434;2023-04-24T09:59:12;5.43;;;3.10;;
73557;SDS011;61829;53.286;10.434;2023-04-24T10:01:42;4.80;;;2.53;;
73557;SDS011;61829;53.286;10.434;2023-04-24T10:06:42;4.43;;;2.67;;
73557;SDS011;61829;53.286;10.434;2023-04-24T10:09:09;6.47;;;3.03;;
73557;SDS011;61829;53.286;10.434;2023-04-24T10:11:37;5.63;;;3.10;;
73557;SDS011;61829;53.286;10.434;2023-04-24T10:14:09;4.90;;;2.92;;
73557;SDS011;61829;53.286;10.434;2023-04-24T10:16:37;7.75;;;4.10;;
73557;SDS011;61829;53.286;10.434;2023-04-24T10:19:05;6.75;;;3.53;;
73557;SDS011;61829;53.286;10.434;2023-04-24T10:21:31;8.10;;;3.97;;
73557;SDS011;61829;53.286;10.434;2023-04-24T10:23:58;9.52;;;4.47;;
73557;SDS011;61829;53.286;10.434;2023-04-24T10:26:25;5.45;;;3.60;;
73557;SDS011;61829;53.286;10.434;2023-04-24T10:28:53;8.00;;;4.65;;
73557;SDS011;61829;53.286;10.434;2023-04-24T10:31:19;6.95;;;4.00;;
73557;SDS011;61829;53.286;10.434;2023-04-24T10:33:46;17.15;;;6.57;;
73557;SDS011;61829;53.286;10.434;2023-04-24T10:36:15;7.70;;;4.30;;
73557;SDS011;61829;53.286;10.434;2023-04-24T10:38:42;6.97;;;3.90;;
73557;SDS011;61829;53.286;10.434;2023-04-24T10:41:11;5.45;;;3.70;;
73557;SDS011;61829;53.286;10.434;2023-04-24T10:43:45;6.05;;;3.60;;
73557;SDS011;61829;53.286;10.434;2023-04-24T10:46:16;23.05;;;7.53;;
73557;SDS011;61829;53.286;10.434;2023-04-24T10:48:52;10.30;;;4.50;;
73557;SDS011;61829;53.286;10.434;2023-04-24T10:51:22;6.47;;;3.55;;
73557;SDS011;61829;53.286;10.434;2023-04-24T10:53:50;8.65;;;3.60;;
73557;SDS011;61829;53.286;10.434;2023-04-24T10:56:16;17.13;;;5.25;;
73557;SDS011;61829;53.286;10.434;2023-04-24T11:03:58;6.18;;;3.78;;
73557;SDS011;61829;53.286;10.434;2023-04-24T11:06:29;11.77;;;4.97;;
73557;SDS011;61829;53.286;10.434;2023-04-24T11:11:33;6.22;;;3.60;;
73557;SDS011;61829;53.286;10.434;2023-04-24T11:14:01;6.30;;;3.40;;
73557;SDS011;61829;53.286;10.434;2023-04-24T11:26:50;5.10;;;3.40;;
73557;SDS011;61829;53.286;10.434;2023-04-24T11:29:19;5.50;;;2.90;;
73557;SDS011;61829;53.286;10.434;2023-04-24T11:31:46;3.67;;;2.50;;
73557;SDS011;61829;53.286;10.434;2023-04-24T11:34:18;4.80;;;2.60;;
73557;SDS011;61829;53.286;10.434;2023-04-24T11:36:44;3.45;;;2.33;;
73557;SDS011;61829;53.286;10.434;2023-04-24T11:39:14;4.78;;;2.78;;
73557;SDS011;61829;53.286;10.434;2023-04-24T11:41:40;4.38;;;2.20;;
73557;SDS011;61829;53.286;10.434;2023-04-24T11:44:06;3.72;;;1.92;;
73557;SDS011;61829;53.286;10.434;2023-04-24T11:46:33;3.17;;;2.03;;
73557;SDS011;61829;53.286;10.434;2023-04-24T11:48:59;4.22;;;2.08;;
73557;SDS011;61829;53.286;10.434;2023-04-24T11:51:26;3.30;;;2.05;;
73557;SDS011;61829;53.286;10.434;2023-04-24T11:53:53;3.22;;;2.10;;
73557;SDS011;61829;53.286;10.434;2023-04-24T11:56:22;3.15;;;2.03;;
73557;SDS011;61829;53.286;10.434;2023-04-24T11:58:50;3.80;;;2.10;;
73557;SDS011;61829;53.286;10.434;2023-04-24T12:01:18;3.55;;;2.22;;
73557;SDS011;61829;53.286;10.434;2023-04-24T12:03:47;3.35;;;2.22;;
73557;SDS011;61829;53.286;10.434;2023-04-24T12:06:14;3.30;;;2.30;;
73557;SDS011;61829;53.286;10.434;2023-04-24T12:08:40;4.13;;;2.40;;
73557;SDS011;61829;53.286;10.434;2023-04-24T12:11:06;5.97;;;2.40;;
73557;SDS011;61829;53.286;10.434;2023-04-24T12:13:33;5.32;;;2.85;;
73557;SDS011;61829;53.286;10.434;2023-04-24T12:16:03;4.40;;;2.63;;
73557;SDS011;61829;53.286;10.434;2023-04-24T12:18:33;3.58;;;2.33;;
73557;SDS011;61829;53.286;10.434;2023-04-24T12:23:47;4.32;;;2.42;;
73557;SDS011;61829;53.286;10.434;2023-04-24T12:26:17;3.75;;;2.30;;
73557;SDS011;61829;53.286;10.434;2023-04-24T12:28:45;3.20;;;2.08;;
73557;SDS011;61829;53.286;10.434;2023-04-24T12:31:16;3.25;;;2.20;;
73557;SDS011;61829;53.286;10.434;2023-04-24T12:33:43;4.43;;;2.30;;
73557;SDS011;61829;53.286;10.434;2023-04-24T12:36:09;3.78;;;2.15;;
73557;SDS011;61829;53.286;10.434;2023-04-24T12:38:38;3.10;;;2.17;;
73557;SDS011;61829;53.286;10.434;2023-04-24T12:41:11;3.95;;;2.42;;
73557;SDS011;61829;53.286;10.434;2023-04-24T12:43:50;3.88;;;2.20;;
73557;SDS011;61829;53.286;10.434;2023-04-24T12:46:16;3.80;;;2.03;;
73557;SDS011;61829;53.286;10.434;2023-04-24T12:48:43;3.35;;;2.20;;
73557;SDS011;61829;53.286;10.434;2023-04-24T12:51:08;3.50;;;2.15;;
73557;SDS011;61829;53.286;10.434;2023-04-24T12:53:34;4.32;;;2.08;;
73557;SDS011;61829;53.286;10.434;2023-04-24T12:56:00;5.32;;;2.45;;
73557;SDS011;61829;53.286;10.434;2023-04-24T12:58:26;3.00;;;2.03;;
73557;SDS011;61829;53.286;10.434;2023-04-24T13:00:54;3.92;;;2.30;;
73557;SDS011;61829;53.286;10.434;2023-04-24T13:03:20;5.47;;;1.80;;
73557;SDS011;61829;53.286;10.434;2023-04-24T13:08:13;3.60;;;1.77;;
73557;SDS011;61829;53.286;10.434;2023-04-24T13:10:39;3.72;;;1.92;;
73557;SDS011;61829;53.286;10.434;2023-04-24T13:13:08;3.35;;;1.80;;
73557;SDS011;61829;53.286;10.434;2023-04-24T13:15:34;2.80;;;1.80;;
73557;SDS011;61829;53.286;10.434;2023-04-24T13:18:00;3.30;;;1.58;;
73557;SDS011;61829;53.286;10.434;2023-04-24T13:20:26;3.78;;;1.70;;
73557;SDS011;61829;53.286;10.434;2023-04-24T13:22:52;5.43;;;1.80;;
73557;SDS011;61829;53.286;10.434;2023-04-24T13:25:18;3.85;;;2.05;;
73557;SDS011;61829;53.286;10.434;2023-04-24T13:27:45;2.92;;;1.80;;
73557;SDS011;61829;53.286;10.434;2023-04-24T13:30:11;1.92;;;1.40;;
73557;SDS011;61829;53.286;10.434;2023-04-24T13:32:38;2.78;;;1.70;;
73557;SDS011;61829;53.286;10.434;2023-04-24T13:35:04;2.95;;;1.60;;
73557;SDS011;61829;53.286;10.434;2023-04-24T13:37:30;4.30;;;1.80;;
73557;SDS011;61829;53.286;10.434;2023-04-24T13:39:55;2.30;;;1.55;;
73557;SDS011;61829;53.286;10.434;2023-04-24T13:42:21;2.67;;;1.50;;
73557;SDS011;61829;53.286;10.434;2023-04-24T13:44:47;2.83;;;1.80;;
73557;SDS011;61829;53.286;10.434;2023-04-24T13:49:40;2.42;;;1.60;;
73557;SDS011;61829;53.286;10.434;2023-04-24T13:52:06;2.50;;;1.40;;
73557;SDS011;61829;53.286;10.434;2023-04-24T13:54:32;2.50;;;1.40;;
73557;SDS011;61829;53.286;10.434;2023-04-24T13:56:58;3.63;;;1.42;;
73557;SDS011;61829;53.286;10.434;2023-04-24T13:59:24;2.22;;;1.38;;
73557;SDS011;61829;53.286;10.434;2023-04-24T14:01:50;3.40;;;1.92;;
73557;SDS011;61829;53.286;10.434;2023-04-24T14:04:16;3.70;;;2.33;;
73557;SDS011;61829;53.286;10.434;2023-04-24T14:06:42;13.68;;;3.33;;
73557;SDS011;61829;53.286;10.434;2023-04-24T14:09:10;4.28;;;1.80;;
73557;SDS011;61829;53.286;10.434;2023-04-24T14:11:35;10.40;;;4.18;;
73557;SDS011;61829;53.286;10.434;2023-04-24T14:14:01;18.90;;;4.47;;
73557;SDS011;61829;53.286;10.434;2023-04-24T14:16:28;25.35;;;6.45;;
73557;SDS011;61829;53.286;10.434;2023-04-24T14:18:54;2.63;;;1.60;;
73557;SDS011;61829;53.286;10.434;2023-04-24T14:21:20;6.18;;;2.20;;
73557;SDS011;61829;53.286;10.434;2023-04-24T14:23:45;3.85;;;1.90;;
73557;SDS011;61829;53.286;10.434;2023-04-24T14:26:11;2.75;;;2.03;;
73557;SDS011;61829;53.286;10.434;2023-04-24T14:28:37;4.90;;;2.05;;
73557;SDS011;61829;53.286;10.434;2023-04-24T14:31:04;4.00;;;2.10;;
73557;SDS011;61829;53.286;10.434;2023-04-24T14:33:29;2.95;;;1.75;;
73557;SDS011;61829;53.286;10.434;2023-04-24T14:35:55;3.20;;;1.83;;
73557;SDS011;61829;53.286;10.434;2023-04-24T14:38:21;4.50;;;1.83;;
73557;SDS011;61829;53.286;10.434;2023-04-24T14:40:47;2.75;;;1.60;;
73557;SDS011;61829;53.286;10.434;2023-04-24T14:43:13;5.63;;;2.22;;
73557;SDS011;61829;53.286;10.434;2023-04-24T14:45:39;6.10;;;2.65;;
73557;SDS011;61829;53.286;10.434;2023-04-24T14:48:06;10.25;;;3.28;;
73557;SDS011;61829;53.286;10.434;2023-04-24T14:50:33;2.30;;;1.70;;
73557;SDS011;61829;53.286;10.434;2023-04-24T14:52:59;2.83;;;1.50;;
73557;SDS011;61829;53.286;10.434;2023-04-24T14:55:28;1.63;;;1.33;;
73557;SDS011;61829;53.286;10.434;2023-04-24T14:57:54;1.73;;;1.00;;
73557;SDS011;61829;53.286;10.434;2023-04-24T15:00:20;1.42;;;1.02;;
73557;SDS011;61829;53.286;10.434;2023-04-24T15:02:48;0.80;;;0.80;;
73557;SDS011;61829;53.286;10.434;2023-04-24T15:05:16;1.52;;;0.80;;
73557;SDS011;61829;53.286;10.434;2023-04-24T15:07:42;1.00;;;0.70;;
73557;SDS011;61829;53.286;10.434;2023-04-24T15:10:08;0.60;;;0.60;;